createdAt,value
2023-12-12T00:02:48.009Z,2.15
2023-12-12T00:07:50.026Z,3.85
2023-12-12T00:12:51.696Z,2.47
2023-12-12T00:17:53.441Z,3.25
2023-12-12T00:22:55.247Z,4.35
2023-12-12T00:27:56.906Z,4.80
2023-12-12T00:32:58.792Z,2.90
2023-12-12T00:38:00.511Z,3.72
2023-12-12T00:43:02.289Z,2.50
2023-12-12T00:48:04.570Z,3.78
2023-12-12T00:53:06.264Z,4.22
2023-12-12T00:58:08.101Z,4.47
2023-12-12T01:03:09.853Z,2.80
2023-12-12T01:08:11.607Z,3.25
2023-12-12T01:13:13.354Z,3.40
2023-12-12T01:18:15.175Z,5.50
2023-12-12T01:23:19.714Z,4.30
2023-12-12T01:28:21.480Z,5.07
2023-12-12T01:33:24.824Z,2.42
2023-12-12T01:38:27.062Z,3.53
2023-12-12T01:43:32.715Z,5.00
2023-12-12T01:48:34.792Z,4.95
2023-12-12T01:53:40.045Z,5.22
2023-12-12T01:58:44.506Z,3.90
2023-12-12T02:03:46.511Z,4.13
2023-12-12T02:08:49.068Z,3.35
2023-12-12T02:13:50.965Z,2.65
2023-12-12T02:18:52.701Z,3.30
2023-12-12T02:23:54.537Z,2.53
2023-12-12T02:28:56.665Z,2.92
2023-12-12T02:33:58.432Z,2.75
2023-12-12T02:39:00.123Z,3.60
2023-12-12T02:44:01.840Z,2.35
2023-12-12T02:49:03.655Z,3.28
2023-12-12T02:54:05.468Z,3.47
2023-12-12T02:59:07.134Z,3.15
2023-12-12T03:04:08.969Z,3.50
2023-12-12T03:09:10.698Z,2.00
2023-12-12T03:14:12.400Z,3.40
2023-12-12T03:19:14.180Z,2.42
2023-12-12T03:24:17.318Z,2.97
2023-12-12T03:29:19.093Z,2.55
2023-12-12T03:34:20.845Z,2.83
2023-12-12T03:39:22.635Z,3.20
2023-12-12T03:44:24.356Z,1.67
2023-12-12T03:49:26.106Z,2.13
2023-12-12T03:54:28.402Z,2.78
2023-12-12T03:59:30.185Z,2.10
2023-12-12T04:04:32.019Z,3.95
2023-12-12T04:09:33.835Z,2.72
2023-12-12T04:14:35.591Z,4.75
2023-12-12T04:19:37.331Z,3.85
2023-12-12T04:24:39.214Z,4.20
2023-12-12T04:29:40.913Z,2.22
2023-12-12T04:34:42.985Z,2.67
2023-12-12T04:39:44.647Z,3.70
2023-12-12T04:44:46.342Z,3.05
2023-12-12T04:49:48.786Z,3.65
2023-12-12T04:54:50.560Z,3.90
2023-12-12T04:59:52.335Z,4.18
2023-12-12T05:04:54.073Z,3.35
2023-12-12T05:09:55.817Z,3.28
2023-12-12T05:14:58.364Z,3.47
2023-12-12T05:20:10.976Z,3.75
2023-12-12T05:25:13.070Z,2.20
2023-12-12T05:30:15.029Z,3.78
2023-12-12T05:35:16.837Z,3.33
2023-12-12T05:40:18.712Z,4.30
2023-12-12T05:45:20.528Z,6.55
2023-12-12T05:50:22.207Z,2.42
2023-12-12T05:55:23.910Z,2.70
2023-12-12T06:00:28.616Z,4.53
2023-12-12T06:05:30.532Z,7.15
2023-12-12T06:10:32.298Z,4.50
2023-12-12T06:15:34.384Z,4.13
2023-12-12T06:20:36.520Z,4.65
2023-12-12T06:25:38.306Z,7.03
2023-12-12T06:30:40.051Z,6.30
2023-12-12T06:35:41.889Z,6.38
2023-12-12T06:40:43.592Z,5.70
2023-12-12T06:45:45.376Z,4.47
2023-12-12T06:50:47.327Z,4.35
2023-12-12T06:55:49.679Z,4.22
2023-12-12T07:00:52.116Z,3.95
2023-12-12T07:05:54.029Z,6.93
2023-12-12T07:10:56.084Z,5.75
2023-12-12T07:15:59.462Z,2.78
2023-12-12T07:21:01.163Z,5.22
2023-12-12T07:26:03.004Z,5.10
2023-12-12T07:31:06.171Z,3.45
2023-12-12T07:36:08.325Z,5.95
2023-12-12T07:41:11.590Z,5.70
2023-12-12T07:46:13.338Z,5.15
2023-12-12T07:51:15.019Z,6.07
2023-12-12T07:56:16.764Z,4.85
2023-12-12T08:01:18.512Z,5.30
2023-12-12T08:06:21.656Z,3.95
2023-12-12T08:11:26.116Z,4.32
2023-12-12T08:16:27.755Z,4.25
2023-12-12T08:21:29.585Z,4.53
2023-12-12T08:26:31.211Z,6.22
2023-12-12T08:31:32.874Z,4.85
2023-12-12T08:36:35.348Z,4.35
2023-12-12T08:41:38.963Z,3.40
2023-12-12T08:46:45.038Z,2.92
2023-12-12T08:51:47.081Z,5.22
2023-12-12T08:56:53.821Z,5.63
2023-12-12T09:01:56.027Z,3.65
2023-12-12T09:06:57.838Z,6.57
2023-12-12T09:12:02.047Z,7.32
2023-12-12T09:17:03.898Z,5.15
2023-12-12T09:22:05.996Z,4.30
2023-12-12T09:27:07.739Z,5.18
2023-12-12T09:32:09.473Z,4.95
2023-12-12T09:37:11.151Z,6.22
2023-12-12T09:42:17.140Z,6.78
2023-12-12T09:47:20.784Z,5.00
2023-12-12T09:52:24.783Z,5.68
2023-12-12T09:57:28.228Z,7.00
2023-12-12T10:02:36.482Z,7.35
2023-12-12T10:07:38.668Z,7.93
2023-12-12T10:12:41.125Z,7.72
2023-12-12T10:17:42.857Z,8.20
2023-12-12T10:22:44.635Z,7.18
2023-12-12T10:27:46.474Z,5.15
2023-12-12T10:32:52.530Z,4.78
2023-12-12T10:37:54.674Z,4.65
2023-12-12T10:42:58.306Z,6.47
2023-12-12T10:48:01.186Z,6.15
2023-12-12T10:53:04.339Z,6.13
2023-12-12T10:58:07.146Z,3.47
2023-12-12T11:03:08.876Z,5.78
2023-12-12T11:08:10.775Z,6.00
2023-12-12T11:13:12.833Z,4.63
2023-12-12T11:18:16.860Z,5.85
2023-12-12T11:23:43.397Z,7.95
2023-12-12T11:28:45.132Z,6.25
2023-12-12T11:34:05.968Z,10.52
2023-12-12T11:39:09.597Z,8.18
2023-12-12T11:44:11.304Z,5.60
2023-12-12T11:49:20.578Z,9.50
2023-12-12T11:54:25.408Z,6.38
2023-12-12T11:59:29.532Z,6.75
2023-12-12T12:04:31.424Z,3.05
2023-12-12T12:09:34.115Z,6.85
2023-12-12T12:14:36.685Z,4.53
2023-12-12T12:19:41.658Z,5.32
2023-12-12T12:24:48.988Z,6.18
2023-12-12T12:30:04.581Z,4.00
2023-12-12T12:35:10.704Z,4.20
2023-12-12T12:40:12.611Z,7.53
2023-12-12T12:45:17.318Z,5.78
2023-12-12T12:50:19.165Z,3.38
2023-12-12T12:55:20.961Z,5.93
2023-12-12T13:00:22.701Z,3.70
2023-12-12T13:05:26.388Z,6.15
2023-12-12T13:10:39.565Z,5.28
2023-12-12T13:15:49.029Z,7.10
2023-12-12T13:20:50.775Z,4.10
2023-12-12T13:25:53.113Z,3.60
2023-12-12T13:30:54.795Z,4.65
2023-12-12T13:35:56.510Z,3.88
2023-12-12T13:40:58.277Z,10.05
2023-12-12T13:46:00.107Z,6.03
2023-12-12T13:51:02.058Z,4.45
2023-12-12T13:56:04.647Z,5.07
2023-12-12T14:01:06.597Z,4.55
2023-12-12T14:06:08.874Z,3.70
2023-12-12T14:11:10.641Z,4.68
2023-12-12T14:16:12.365Z,7.15
2023-12-12T14:21:14.671Z,5.60
2023-12-12T14:26:18.033Z,2.88
2023-12-12T14:31:19.935Z,3.92
2023-12-12T14:36:21.746Z,3.38
2023-12-12T14:41:23.426Z,5.20
2023-12-12T14:46:25.128Z,5.43
2023-12-12T14:51:27.717Z,4.07
2023-12-12T14:56:29.592Z,4.25
2023-12-12T15:01:31.905Z,6.43
2023-12-12T15:06:33.781Z,5.38
2023-12-12T15:11:35.901Z,5.22
2023-12-12T15:16:39.918Z,10.13
2023-12-12T15:21:42.258Z,6.70
2023-12-12T15:26:45.348Z,8.48
2023-12-12T15:31:48.457Z,11.55
2023-12-12T15:36:50.287Z,7.15
2023-12-12T15:41:52.276Z,6.30
2023-12-12T15:46:53.992Z,7.57
2023-12-12T15:52:00.067Z,6.45
2023-12-12T15:57:01.986Z,6.70
2023-12-12T16:02:03.850Z,7.05
2023-12-12T16:07:06.223Z,3.92
2023-12-12T16:12:09.468Z,7.20
2023-12-12T16:17:13.068Z,7.97
2023-12-12T16:22:15.839Z,9.32
2023-12-12T16:27:17.665Z,7.72
2023-12-12T16:32:19.413Z,6.57
2023-12-12T16:37:23.591Z,7.38
2023-12-12T16:42:27.435Z,8.15
2023-12-12T16:47:31.242Z,6.82
2023-12-12T16:52:33.355Z,6.45
2023-12-12T16:57:37.281Z,6.43
2023-12-12T17:02:39.473Z,6.60
2023-12-12T17:07:41.379Z,7.15
2023-12-12T17:12:43.244Z,7.75
2023-12-12T17:17:45.114Z,6.10
2023-12-12T17:22:46.897Z,5.55
2023-12-12T17:27:48.783Z,7.25
2023-12-12T17:32:51.341Z,11.68
2023-12-12T17:37:53.179Z,8.43
2023-12-12T17:42:55.072Z,6.32
2023-12-12T17:47:56.884Z,7.30
2023-12-12T17:53:00.332Z,11.60
2023-12-12T17:58:04.531Z,10.05
2023-12-12T18:03:06.885Z,10.70
2023-12-12T18:08:09.334Z,10.75
2023-12-12T18:13:11.154Z,10.95
2023-12-12T18:18:13.852Z,11.27
2023-12-12T18:23:15.709Z,8.77
2023-12-12T18:28:17.457Z,7.68
2023-12-12T18:33:19.360Z,10.18
2023-12-12T18:38:24.400Z,14.10
2023-12-12T18:43:26.184Z,15.30
2023-12-12T18:48:27.897Z,10.18
2023-12-12T18:53:30.948Z,7.22
2023-12-12T18:58:33.207Z,9.27
2023-12-12T19:03:34.897Z,9.98
2023-12-12T19:08:36.997Z,9.10
2023-12-12T19:13:38.925Z,12.15
2023-12-12T19:18:40.717Z,10.05
2023-12-12T19:23:42.707Z,10.80
2023-12-12T19:28:44.448Z,10.02
2023-12-12T19:33:46.190Z,11.13
2023-12-12T19:38:48.405Z,12.93
2023-12-12T19:43:50.126Z,8.45
2023-12-12T19:48:51.883Z,11.82
2023-12-12T19:53:53.636Z,12.20
2023-12-12T19:58:55.507Z,16.20
2023-12-12T20:03:57.231Z,10.13
2023-12-12T20:08:59.010Z,10.10
2023-12-12T20:14:00.662Z,9.88
2023-12-12T20:19:03.735Z,10.55
2023-12-12T20:24:05.840Z,11.13
2023-12-12T20:29:07.580Z,10.13
2023-12-12T20:34:09.567Z,13.43
2023-12-12T20:39:13.597Z,8.27
2023-12-12T20:44:15.454Z,7.13
2023-12-12T20:49:17.887Z,8.45
2023-12-12T20:54:24.972Z,13.85
2023-12-12T20:59:27.225Z,8.95
2023-12-12T21:04:28.986Z,7.68
2023-12-12T21:09:31.024Z,9.48
2023-12-12T21:14:32.759Z,8.88
2023-12-12T21:19:35.904Z,12.68
2023-12-12T21:24:37.751Z,10.98
2023-12-12T21:29:39.423Z,10.23
2023-12-12T21:34:41.134Z,8.38
2023-12-12T21:39:43.044Z,9.77
2023-12-12T21:44:44.970Z,8.07
2023-12-12T21:49:46.819Z,10.20
2023-12-12T21:54:48.966Z,8.23
2023-12-12T21:59:50.723Z,10.98
2023-12-12T22:04:52.723Z,6.70
2023-12-12T22:09:54.691Z,14.13
2023-12-12T22:14:56.704Z,9.75
2023-12-12T22:20:05.720Z,10.65
2023-12-12T22:25:08.983Z,12.32
2023-12-12T22:30:11.380Z,17.60
2023-12-12T22:35:16.199Z,8.57
2023-12-12T22:40:18.258Z,9.98
2023-12-12T22:45:21.995Z,11.32
2023-12-12T22:50:23.751Z,9.65
2023-12-12T22:55:25.536Z,10.60
2023-12-12T23:00:33.742Z,12.30
2023-12-12T23:05:35.725Z,14.65
2023-12-12T23:10:37.463Z,13.73
2023-12-12T23:15:39.624Z,11.30
2023-12-12T23:20:41.763Z,12.15
2023-12-12T23:25:43.751Z,11.80
2023-12-12T23:31:00.453Z,9.02
2023-12-12T23:36:10.177Z,12.98
2023-12-12T23:41:12.057Z,12.80
2023-12-12T23:46:16.077Z,10.35
2023-12-12T23:51:19.731Z,11.48
2023-12-12T23:56:21.586Z,9.45
